Time;durP1;ratioP1;P1;durP2;ratioP2;P2;SDS_P1;SDS_P2;PMS_P1;PMS_P2;Temp;Humidity;BMP_temperature;BMP_pressure;BME280_temperature;BME280_humidity;BME280_pressure;Samples;Min_cycle;Max_cycle;Signal;HPM_P1;HPM_P2
2023/01/05 00:01:52;;;;;;;;;;;;;;;8.98;100.00;100328.25;6244389;22;20636;-80
2023/01/05 00:04:18;;;;;;;;;;;;;;;8.94;100.00;100325.69;6218202;22;20322;-79
2023/01/05 00:06:45;;;;;;;;;;;;;;;8.95;100.00;100331.75;6219892;22;19915;-79
2023/01/05 00:09:14;;;;;;;;;;;;;;;8.98;100.00;100326.50;6219627;22;20235;-78
2023/01/05 00:22:46;;;;;;;;;;;;;;;9.05;100.00;100337.78;6244027;22;19987;-80
2023/01/05 00:25:17;;;;;;;;;;;;;;;9.09;100.00;100337.75;6245944;22;19943;-81
2023/01/05 00:27:46;;;;;;;;;;;;;;;9.14;100.00;100334.22;6245409;22;20269;-79
2023/01/05 00:30:14;;;;;;;;;;;;;;;9.08;100.00;100330.78;6246506;22;20596;-79
2023/01/05 00:32:41;;;;;;;;;;;;;;;9.16;100.00;100340.31;6270715;22;19923;-79
2023/01/05 00:35:09;;;;;;;;;;;;;;;9.19;100.00;100329.81;6219280;22;19915;-79
2023/01/05 00:37:36;;;;;;;;;;;;;;;9.21;100.00;100338.53;6218650;22;19922;-79
2023/01/05 00:40:04;;;;;;;;;;;;;;;9.00;100.00;100335.19;6219828;22;19911;-78
2023/01/05 00:42:31;;;;;;;;;;;;;;;8.85;100.00;100319.66;6271746;22;19915;-79
2023/01/05 00:44:57;;;;;;;;;;;;;;;8.80;100.00;100342.31;6220778;22;20009;-79
2023/01/05 00:47:24;;;;;;;;;;;;;;;8.61;100.00;100348.50;6246643;22;19915;-79
2023/01/05 00:49:50;;;;;;;;;;;;;;;8.56;100.00;100347.66;6224192;22;19930;-77
2023/01/05 00:52:17;;;;;;;;;;;;;;;8.49;100.00;100345.97;6249454;22;19915;-78
2023/01/05 00:54:43;;;;;;;;;;;;;;;8.56;100.00;100355.47;6246150;22;19919;-78
2023/01/05 00:57:13;;;;;;;;;;;;;;;8.63;100.00;100358.06;6221295;22;20353;-78
2023/01/05 00:59:40;;;;;;;;;;;;;;;8.59;100.00;100367.66;6248847;22;19917;-78
2023/01/05 01:02:08;;;;;;;;;;;;;;;8.61;100.00;100360.69;6246800;22;19919;-80
2023/01/05 01:04:35;;;;;;;;;;;;;;;8.66;100.00;100348.50;6221755;22;19982;-78
2023/01/05 01:07:03;;;;;;;;;;;;;;;8.80;100.00;100357.97;6220798;22;19912;-78
2023/01/05 01:09:30;;;;;;;;;;;;;;;8.76;100.00;100359.72;6245473;22;19918;-79
2023/01/05 01:11:56;;;;;;;;;;;;;;;8.75;100.00;100360.63;6245370;22;19911;-79
2023/01/05 01:14:23;;;;;;;;;;;;;;;8.69;100.00;100363.25;6219547;22;19911;-77
2023/01/05 01:16:50;;;;;;;;;;;;;;;8.66;100.00;100355.47;6244779;22;19918;-79
2023/01/05 01:19:19;;;;;;;;;;;;;;;8.75;100.00;100358.00;6244667;22;19957;-78
2023/01/05 01:21:45;;;;;;;;;;;;;;;8.72;100.00;100365.84;6220225;22;20315;-79
2023/01/05 01:24:18;;;;;;;;;;;;;;;8.70;100.00;100375.44;6222469;22;19915;-79
2023/01/05 01:26:45;;;;;;;;;;;;;;;8.74;100.00;100375.41;6223448;22;19972;-78
2023/01/05 01:29:11;;;;;;;;;;;;;;;8.81;100.00;100377.97;6248247;22;19973;-80
2023/01/05 01:31:37;;;;;;;;;;;;;;;8.82;100.00;100374.50;6248074;22;19930;-78
2023/01/05 01:34:04;;;;;;;;;;;;;;;8.86;100.00;100370.97;6247755;22;20225;-79
2023/01/05 01:36:31;;;;;;;;;;;;;;;8.89;100.00;100389.22;6246694;22;19911;-79
2023/01/05 01:38:57;;;;;;;;;;;;;;;8.84;100.00;100386.66;6245204;22;19922;-79
2023/01/05 01:41:24;;;;;;;;;;;;;;;8.83;100.00;100384.91;6244008;22;20064;-78
2023/01/05 01:43:52;;;;;;;;;;;;;;;8.91;100.00;100384.88;6245453;22;19930;-80
2023/01/05 01:46:20;;;;;;;;;;;;;;;8.97;100.00;100394.41;6247210;22;20589;-78
2023/01/05 01:48:59;;;;;;;;;;;;;;;9.02;100.00;100390.91;6247730;22;19969;-80
2023/01/05 01:51:35;;;;;;;;;;;;;;;9.06;100.00;100379.56;6246827;22;20686;-78
2023/01/05 01:54:05;;;;;;;;;;;;;;;9.07;100.00;100389.13;6247677;22;20234;-77
2023/01/05 01:56:38;;;;;;;;;;;;;;;9.10;100.00;100389.09;6246698;22;19919;-78
2023/01/05 01:59:06;;;;;;;;;;;;;;;9.07;100.00;100403.91;6246275;22;20315;-79
2023/01/05 02:01:33;;;;;;;;;;;;;;;9.05;100.00;100403.06;6221633;22;19934;-79
2023/01/05 02:04:02;;;;;;;;;;;;;;;8.94;100.00;100395.28;6246797;22;19915;-77
2023/01/05 02:06:30;;;;;;;;;;;;;;;8.84;100.00;100401.44;6222420;22;19969;-78
2023/01/05 02:08:56;;;;;;;;;;;;;;;8.81;100.00;100398.84;6246965;22;19915;-78
2023/01/05 02:11:24;;;;;;;;;;;;;;;8.84;100.00;100396.22;6246969;22;19915;-78
2023/01/05 02:14:02;;;;;;;;;;;;;;;8.76;100.00;100398.88;6247478;22;20605;-78
2023/01/05 02:16:52;;;;;;;;;;;;;;;8.72;100.00;100389.31;6247585;22;19918;-78
2023/01/05 02:19:56;;;;;;;;;;;;;;;8.81;100.00;100391.03;6221146;22;19942;-78
2023/01/05 02:22:29;;;;;;;;;;;;;;;8.54;100.00;100390.28;6273902;22;20306;-78
2023/01/05 02:25:23;;;;;;;;;;;;;;;8.44;100.00;100390.28;6276310;22;20330;-80
2023/01/05 02:28:11;;;;;;;;;;;;;;;8.37;100.00;100392.94;6248138;22;19941;-78
2023/01/05 02:30:59;;;;;;;;;;;;;;;8.40;100.00;100400.75;6248130;22;20266;-78
2023/01/05 02:33:45;;;;;;;;;;;;;;;8.47;100.00;100402.50;6247505;22;19916;-79
2023/01/05 02:36:29;;;;;;;;;;;;;;;8.43;100.00;100409.47;6247659;22;20226;-79
2023/01/05 02:39:12;;;;;;;;;;;;;;;8.38;100.00;100416.44;6246438;22;19918;-77
2023/01/05 02:41:46;;;;;;;;;;;;;;;8.33;100.00;100410.38;6241897;22;19915;-79
2023/01/05 02:44:17;;;;;;;;;;;;;;;8.27;100.00;100415.59;6245395;22;19915;-79
2023/01/05 02:46:43;;;;;;;;;;;;;;;8.22;100.00;100406.91;6220775;22;19915;-79
2023/01/05 02:49:10;;;;;;;;;;;;;;;8.19;100.00;100406.94;6245568;22;20507;-78
2023/01/05 02:51:40;;;;;;;;;;;;;;;8.19;100.00;100413.00;6245673;22;19942;-79
2023/01/05 02:54:17;;;;;;;;;;;;;;;8.17;100.00;100419.09;6246037;22;19933;-79
2023/01/05 02:56:49;;;;;;;;;;;;;;;8.11;100.00;100422.59;6220300;22;19915;-79
2023/01/05 02:59:25;;;;;;;;;;;;;;;8.06;100.00;100421.75;6219969;22;19911;-79
2023/01/05 03:01:56;;;;;;;;;;;;;;;8.00;100.00;100421.75;6244242;22;19922;-81
2023/01/05 03:04:38;;;;;;;;;;;;;;;7.98;100.00;100400.00;6243998;22;19919;-80
2023/01/05 03:07:08;;;;;;;;;;;;;;;8.00;100.00;100406.97;6219983;22;20357;-79
2023/01/05 03:09:37;;;;;;;;;;;;;;;8.01;100.00;100433.91;6247682;22;20127;-79
2023/01/05 03:15:08;;;;;;;;;;;;;;;7.97;100.00;100438.25;6225595;22;19992;-79
2023/01/05 03:17:47;;;;;;;;;;;;;;;7.97;100.00;100437.41;6221077;22;19921;-79
2023/01/05 03:20:15;;;;;;;;;;;;;;;7.99;100.00;100439.13;6246359;22;19912;-81
2023/01/05 03:37:18;;;;;;;;;;;;;;;8.17;100.00;100445.16;6258659;22;19911;-79
2023/01/05 03:39:47;;;;;;;;;;;;;;;8.24;100.00;100444.28;6258834;22;19915;-80
2023/01/05 03:42:15;;;;;;;;;;;;;;;8.24;100.00;100450.38;6196892;22;20005;-80
2023/01/05 03:44:44;;;;;;;;;;;;;;;8.27;100.00;100444.28;6244016;22;19915;-80
2023/01/05 03:47:11;;;;;;;;;;;;;;;8.25;100.00;100441.69;6244048;22;20315;-79
2023/01/05 03:49:38;;;;;;;;;;;;;;;8.27;100.00;100452.09;6246425;22;19911;-79
2023/01/05 03:52:05;;;;;;;;;;;;;;;8.28;100.00;100443.41;6246360;22;20443;-79
2023/01/05 03:54:31;;;;;;;;;;;;;;;8.34;100.00;100458.16;6246869;22;19922;-80
2023/01/05 03:56:58;;;;;;;;;;;;;;;8.30;100.00;100459.03;6246853;22;19989;-81
2023/01/05 03:59:24;;;;;;;;;;;;;;;8.28;100.00;100464.28;6247979;22;19911;-80
2023/01/05 04:01:51;;;;;;;;;;;;;;;8.31;100.00;100456.44;6246023;22;19922;-78
2023/01/05 04:04:17;;;;;;;;;;;;;;;8.30;100.00;100459.91;6245639;22;19944;-78
2023/01/05 04:06:44;;;;;;;;;;;;;;;8.34;100.00;100469.44;6220240;22;19911;-79
2023/01/05 04:09:10;;;;;;;;;;;;;;;8.35;100.00;100467.72;6221175;22;19911;-79
2023/01/05 04:11:38;;;;;;;;;;;;;;;8.30;100.00;100474.69;6195279;22;19922;-79
2023/01/05 04:14:04;;;;;;;;;;;;;;;8.27;100.00;100463.38;6246263;22;19911;-78
2023/01/05 04:16:31;;;;;;;;;;;;;;;8.33;100.00;100467.75;6244031;22;19922;-81
2023/01/05 04:18:58;;;;;;;;;;;;;;;8.32;100.00;100475.53;6243736;22;19915;-81
2023/01/05 04:21:24;;;;;;;;;;;;;;;8.29;100.00;100479.03;6245031;22;19925;-79
2023/01/05 04:23:52;;;;;;;;;;;;;;;8.34;100.00;100473.81;6248565;22;20001;-78
2023/01/05 04:26:18;;;;;;;;;;;;;;;8.34;100.00;100479.03;6248717;22;19973;-79
2023/01/05 04:28:45;;;;;;;;;;;;;;;8.38;100.00;100480.75;6244640;22;19911;-78
2023/01/05 04:31:11;;;;;;;;;;;;;;;8.40;100.00;100486.84;6246694;22;19922;-78
2023/01/05 04:33:38;;;;;;;;;;;;;;;8.38;100.00;100492.06;6245002;22;20002;-81
2023/01/05 04:36:06;;;;;;;;;;;;;;;8.41;100.00;100494.66;6246732;22;19939;-78
2023/01/05 04:38:33;;;;;;;;;;;;;;;8.42;100.00;100492.91;6246402;22;19939;-78
2023/01/05 04:40:59;;;;;;;;;;;;;;;8.39;100.00;100498.16;6247699;22;19923;-78
2023/01/05 04:43:26;;;;;;;;;;;;;;;8.30;100.00;100496.41;6248033;22;19917;-78
2023/01/05 04:45:53;;;;;;;;;;;;;;;8.27;100.00;100499.03;6249289;22;19930;-78
2023/01/05 04:48:20;;;;;;;;;;;;;;;8.22;100.00;100499.03;6246857;22;19926;-79
2023/01/05 04:50:53;;;;;;;;;;;;;;;8.16;100.00;100496.47;6224095;22;19911;-78
2023/01/05 04:53:22;;;;;;;;;;;;;;;8.18;100.00;100506.88;6249090;22;19911;-77
2023/01/05 04:55:52;;;;;;;;;;;;;;;8.15;100.00;100504.25;6250280;22;20374;-79
2023/01/05 04:58:19;;;;;;;;;;;;;;;8.05;100.00;100508.63;6249347;22;19919;-78
2023/01/05 05:00:46;;;;;;;;;;;;;;;7.96;100.00;100501.69;6248921;22;19946;-78
2023/01/05 05:03:12;;;;;;;;;;;;;;;7.85;100.00;100501.69;6248329;22;20314;-78
2023/01/05 05:05:38;;;;;;;;;;;;;;;7.84;100.00;100512.13;6248684;22;19922;-78
2023/01/05 05:08:05;;;;;;;;;;;;;;;7.85;100.00;100509.50;6247097;22;19915;-77
2023/01/05 05:10:32;;;;;;;;;;;;;;;7.88;100.00;100519.06;6247811;22;20222;-78
2023/01/05 05:12:58;;;;;;;;;;;;;;;7.87;100.00;100517.31;6245760;22;19915;-79
2023/01/05 05:15:25;;;;;;;;;;;;;;;7.84;100.00;100525.16;6248098;22;19911;-78
2023/01/05 05:17:51;;;;;;;;;;;;;;;7.77;100.00;100526.91;6247601;22;19968;-78
2023/01/05 05:20:18;;;;;;;;;;;;;;;7.73;100.00;100525.13;6248332;22;20345;-78
2023/01/05 05:22:45;;;;;;;;;;;;;;;7.78;100.00;100528.59;6247767;22;19922;-78
2023/01/05 05:25:11;;;;;;;;;;;;;;;7.85;100.00;100532.97;6247002;22;20277;-78
2023/01/05 05:27:37;;;;;;;;;;;;;;;7.83;100.00;100529.47;6245696;22;19922;-78
2023/01/05 05:30:05;;;;;;;;;;;;;;;7.84;100.00;100514.72;6245652;22;19915;-77
2023/01/05 05:32:31;;;;;;;;;;;;;;;7.78;100.00;100542.53;6244935;22;19922;-81
2023/01/05 05:34:58;;;;;;;;;;;;;;;7.75;100.00;100546.84;6219815;22;19918;-80
2023/01/05 05:37:24;;;;;;;;;;;;;;;7.81;100.00;100538.16;6221366;22;19921;-78
2023/01/05 05:39:51;;;;;;;;;;;;;;;7.86;100.00;100547.75;6246633;22;19935;-79
2023/01/05 05:42:17;;;;;;;;;;;;;;;7.90;100.00;100541.66;6220350;22;20334;-78
2023/01/05 05:44:43;;;;;;;;;;;;;;;7.93;100.00;100551.22;6245857;22;19965;-78
2023/01/05 05:47:10;;;;;;;;;;;;;;;7.95;100.00;100557.28;6246513;22;19911;-79
2023/01/05 05:49:36;;;;;;;;;;;;;;;7.98;100.00;100549.47;6220091;22;20303;-78
2023/01/05 05:52:03;;;;;;;;;;;;;;;8.02;100.00;100555.56;6218925;22;19915;-79
2023/01/05 05:54:30;;;;;;;;;;;;;;;8.08;100.00;100559.03;6245723;22;19941;-77
2023/01/05 05:56:56;;;;;;;;;;;;;;;8.08;100.00;100565.97;6247220;22;19911;-77
2023/01/05 05:59:23;;;;;;;;;;;;;;;8.14;100.00;100565.13;6223015;22;19922;-77
2023/01/05 06:01:51;;;;;;;;;;;;;;;7.98;100.00;100577.28;6275033;22;19915;-77
2023/01/05 06:04:18;;;;;;;;;;;;;;;7.89;100.00;100568.59;6247327;22;19994;-78
2023/01/05 06:06:44;;;;;;;;;;;;;;;7.85;100.00;100573.78;6245838;22;20626;-78
2023/01/05 06:09:10;;;;;;;;;;;;;;;7.83;100.00;100580.75;6246043;22;19961;-78
2023/01/05 06:11:37;;;;;;;;;;;;;;;7.82;100.00;100572.03;6246906;22;20387;-77
2023/01/05 06:14:05;;;;;;;;;;;;;;;7.83;100.00;100578.13;6247806;22;19915;-79
2023/01/05 06:16:31;;;;;;;;;;;;;;;7.83;100.00;100586.81;6247783;22;19938;-80
2023/01/05 06:18:58;;;;;;;;;;;;;;;7.82;100.00;100589.41;6245533;22;19915;-80
2023/01/05 06:21:24;;;;;;;;;;;;;;;7.81;100.00;100587.69;6247356;22;19942;-77
2023/01/05 06:23:51;;;;;;;;;;;;;;;7.84;100.00;100595.53;6249185;22;19911;-78
2023/01/05 06:26:17;;;;;;;;;;;;;;;7.86;100.00;100598.97;6249078;22;19911;-78
2023/01/05 06:28:43;;;;;;;;;;;;;;;7.83;100.00;100586.81;6223828;22;19911;-78
2023/01/05 06:31:10;;;;;;;;;;;;;;;7.83;100.00;100597.25;6249643;22;20265;-77
2023/01/05 06:33:37;;;;;;;;;;;;;;;7.86;100.00;100597.25;6224025;22;19911;-78
2023/01/05 06:36:04;;;;;;;;;;;;;;;7.87;100.00;100606.78;6273585;22;19915;-79
2023/01/05 06:38:30;;;;;;;;;;;;;;;7.87;100.00;100605.94;6247066;22;20187;-79
2023/01/05 06:40:58;;;;;;;;;;;;;;;7.87;100.00;100617.22;6222189;22;19969;-79
2023/01/05 06:43:26;;;;;;;;;;;;;;;7.87;100.00;100616.38;6222513;22;19934;-78
2023/01/05 06:45:54;;;;;;;;;;;;;;;7.85;100.00;100616.38;6249583;22;19943;-79
2023/01/05 06:48:20;;;;;;;;;;;;;;;7.87;100.00;100612.00;6247082;22;19934;-78
2023/01/05 06:50:47;;;;;;;;;;;;;;;7.86;100.00;100622.44;6247251;22;19997;-77
2023/01/05 06:53:13;;;;;;;;;;;;;;;7.85;100.00;100631.13;6221910;22;19953;-78
2023/01/05 06:55:40;;;;;;;;;;;;;;;7.87;100.00;100617.22;6224177;22;19915;-79
2023/01/05 06:58:06;;;;;;;;;;;;;;;7.93;100.00;100630.28;6247141;22;19911;-78
2023/01/05 07:00:33;;;;;;;;;;;;;;;7.93;100.00;100637.22;6222851;22;20523;-79
2023/01/05 07:07:42;;;;;;;;;;;;;;;7.93;100.00;100638.09;6148809;23;19912;-80
2023/01/05 07:10:11;;;;;;;;;;;;;;;7.91;100.00;100646.78;6145519;22;20328;-78
2023/01/05 07:13:38;;;;;;;;;;;;;;;7.89;100.00;100653.75;6246670;22;19914;-78
2023/01/05 07:19:40;;;;;;;;;;;;;;;7.95;100.00;100651.13;6008795;23;20444;-78
2023/01/05 07:22:06;;;;;;;;;;;;;;;8.00;100.00;100664.19;6224883;22;19946;-78
2023/01/05 07:24:33;;;;;;;;;;;;;;;8.00;100.00;100664.19;6247469;22;19931;-77
2023/01/05 07:27:00;;;;;;;;;;;;;;;7.95;100.00;100662.44;6247488;22;19945;-79
2023/01/05 07:29:27;;;;;;;;;;;;;;;7.94;100.00;100673.72;6221364;22;19922;-79
2023/01/05 07:31:53;;;;;;;;;;;;;;;7.99;100.00;100665.94;6246135;22;19915;-78
2023/01/05 07:34:21;;;;;;;;;;;;;;;7.99;100.00;100663.31;6220071;22;19919;-78
2023/01/05 07:36:48;;;;;;;;;;;;;;;7.99;100.00;100671.13;6222629;22;19911;-79
2023/01/05 07:39:15;;;;;;;;;;;;;;;7.95;100.00;100680.69;6276301;22;19911;-78
2023/01/05 07:41:41;;;;;;;;;;;;;;;7.96;100.00;100678.94;6222379;22;19915;-78
2023/01/05 07:44:08;;;;;;;;;;;;;;;7.95;100.00;100680.69;6248231;22;19920;-78
2023/01/05 07:46:34;;;;;;;;;;;;;;;7.92;100.00;100679.78;6247244;22;19912;-80
2023/01/05 07:49:01;;;;;;;;;;;;;;;7.90;100.00;100692.84;6249114;22;19918;-78
2023/01/05 07:51:28;;;;;;;;;;;;;;;7.90;100.00;100691.94;6254452;22;20303;-79
2023/01/05 07:53:55;;;;;;;;;;;;;;;7.94;100.00;100691.97;6226545;22;19917;-77
2023/01/05 07:56:21;;;;;;;;;;;;;;;7.93;100.00;100700.66;6247496;22;19941;-78
2023/01/05 07:58:48;;;;;;;;;;;;;;;7.97;100.00;100698.94;6246648;22;19973;-78
2023/01/05 08:01:16;;;;;;;;;;;;;;;7.94;100.00;100710.22;6245804;22;19911;-81
2023/01/05 08:03:42;;;;;;;;;;;;;;;7.88;100.00;100711.94;6220616;22;20218;-79
2023/01/05 08:06:14;;;;;;;;;;;;;;;7.86;100.00;100713.66;6245882;22;19916;-78
2023/01/05 08:08:41;;;;;;;;;;;;;;;7.85;100.00;100709.31;6247578;22;19930;-77
2023/01/05 08:11:09;;;;;;;;;;;;;;;7.84;100.00;100712.81;6221646;22;19911;-77
2023/01/05 08:16:17;;;;;;;;;;;;;;;7.90;100.00;100718.91;6230115;22;19919;-78
2023/01/05 08:18:44;;;;;;;;;;;;;;;7.94;100.00;100727.59;6245961;22;19915;-78
2023/01/05 08:21:10;;;;;;;;;;;;;;;7.92;100.00;100729.31;6222013;22;19912;-78
2023/01/05 08:23:38;;;;;;;;;;;;;;;7.89;100.00;100731.94;6247223;22;20253;-78
2023/01/05 08:26:06;;;;;;;;;;;;;;;7.89;100.00;100735.41;6246746;22;20002;-79
2023/01/05 08:28:32;;;;;;;;;;;;;;;7.90;100.00;100737.16;6222048;22;20459;-78
2023/01/05 08:31:04;;;;;;;;;;;;;;;7.95;100.00;100737.13;6246498;22;20503;-77
2023/01/05 08:33:31;;;;;;;;;;;;;;;8.00;100.00;100745.84;6272650;22;20398;-79
2023/01/05 08:35:57;;;;;;;;;;;;;;;8.06;100.00;100745.00;6246326;22;20277;-77
2023/01/05 08:38:25;;;;;;;;;;;;;;;8.10;100.00;100760.66;6246423;22;20318;-78
2023/01/05 08:40:51;;;;;;;;;;;;;;;8.16;100.00;100761.53;6221563;22;19919;-79
2023/01/05 08:43:18;;;;;;;;;;;;;;;8.17;100.00;100751.09;6221137;22;19919;-78
2023/01/05 08:45:48;;;;;;;;;;;;;;;8.11;100.00;100759.78;6246903;22;19915;-78
2023/01/05 08:48:15;;;;;;;;;;;;;;;8.08;100.00;100756.31;6246209;22;19969;-78
2023/01/05 08:50:42;;;;;;;;;;;;;;;8.05;100.00;100770.19;6246154;22;19953;-76
2023/01/05 08:53:08;;;;;;;;;;;;;;;8.05;100.00;100770.19;6245139;22;19965;-77
2023/01/05 08:55:35;;;;;;;;;;;;;;;8.09;100.00;100771.09;6221787;22;19947;-80
2023/01/05 08:58:01;;;;;;;;;;;;;;;8.11;100.00;100777.19;6246129;22;20402;-77
2023/01/05 09:00:27;;;;;;;;;;;;;;;8.11;100.00;100779.78;6246853;22;20234;-78
2023/01/05 09:02:54;;;;;;;;;;;;;;;8.11;100.00;100780.66;6248441;22;20435;-78
2023/01/05 09:05:20;;;;;;;;;;;;;;;8.11;100.00;100791.09;6248358;22;19919;-80
2023/01/05 09:07:47;;;;;;;;;;;;;;;8.13;100.00;100795.44;6246357;22;20010;-78
2023/01/05 09:10:13;;;;;;;;;;;;;;;8.16;100.00;100798.94;6221333;22;20275;-78
2023/01/05 09:12:40;;;;;;;;;;;;;;;8.19;100.00;100798.06;6246884;22;19915;-77
2023/01/05 09:18:52;;;;;;;;;;;;;;;8.14;100.00;100795.44;6117813;23;20376;-80
2023/01/05 09:21:19;;;;;;;;;;;;;;;8.15;100.00;100806.72;6228415;22;19938;-80
2023/01/05 09:23:46;;;;;;;;;;;;;;;8.23;100.00;100808.50;6247253;22;20523;-78
2023/01/05 09:26:14;;;;;;;;;;;;;;;8.35;100.00;100822.47;6220959;22;19915;-77
2023/01/05 09:28:42;;;;;;;;;;;;;;;8.44;100.00;100825.09;6244839;22;19933;-80
2023/01/05 09:31:16;;;;;;;;;;;;;;;8.44;100.00;100822.47;6245415;22;20222;-76
2023/01/05 09:37:31;;;;;;;;;;;;;;;8.58;100.00;100836.47;6167369;22;20291;-77
2023/01/05 09:39:57;;;;;;;;;;;;;;;8.65;100.00;100839.94;6224075;22;19911;-77
2023/01/05 09:42:32;;;;;;;;;;;;;;;8.64;100.00;100843.41;6247195;22;19915;-78
2023/01/05 09:45:06;;;;;;;;;;;;;;;8.69;100.00;100857.34;6247494;22;19911;-77
2023/01/05 09:51:05;;;;;;;;;;;;;;;8.81;100.00;100866.09;6110810;22;20736;-78
2023/01/05 09:53:41;;;;;;;;;;;;;;;8.83;100.00;100867.81;6221451;22;19985;-78
2023/01/05 09:59:52;;;;;;;;;;;;;;;8.92;100.00;100893.09;6267076;22;19918;-77
2023/01/05 10:02:25;;;;;;;;;;;;;;;8.98;100.00;100885.25;6248754;22;19919;-78
2023/01/05 10:04:53;;;;;;;;;;;;;;;9.00;100.00;100891.34;6246399;22;20010;-81
2023/01/05 10:07:42;;;;;;;;;;;;;;;9.04;100.00;100902.69;6221559;22;19942;-78
2023/01/05 10:10:21;;;;;;;;;;;;;;;9.09;100.00;100898.34;6199516;22;19946;-79
2023/01/05 10:13:05;;;;;;;;;;;;;;;9.14;100.00;100907.03;6245627;22;19911;-77
2023/01/05 10:15:41;;;;;;;;;;;;;;;9.15;100.00;100903.56;6250175;22;19915;-78
2023/01/05 10:18:12;;;;;;;;;;;;;;;9.13;100.00;100917.50;6219774;22;19972;-79
2023/01/05 10:21:00;;;;;;;;;;;;;;;9.08;100.00;100912.25;6246296;22;20442;-78
2023/01/05 10:23:39;;;;;;;;;;;;;;;9.00;100.00;100934.88;6247720;22;19922;-78
2023/01/05 10:26:13;;;;;;;;;;;;;;;8.92;100.00;100927.03;6248153;22;19990;-77
2023/01/05 10:28:55;;;;;;;;;;;;;;;8.86;100.00;100938.31;6276296;22;20332;-77
2023/01/05 10:31:24;;;;;;;;;;;;;;;8.82;100.00;100931.34;6274071;22;20625;-78
2023/01/05 10:33:53;;;;;;;;;;;;;;;8.82;100.00;100940.91;6221037;22;20299;-78
2023/01/05 10:36:45;;;;;;;;;;;;;;;8.85;100.00;100940.91;6220148;22;19911;-79
2023/01/05 10:39:44;;;;;;;;;;;;;;;8.87;100.00;100950.50;6273951;22;19915;-78
2023/01/05 10:42:24;;;;;;;;;;;;;;;8.87;100.00;100957.47;6246912;22;19911;-80
2023/01/05 10:44:53;;;;;;;;;;;;;;;8.86;100.00;100955.72;6245622;22;19915;-79
2023/01/05 10:47:21;;;;;;;;;;;;;;;8.83;100.00;100964.41;6220405;22;19922;-78
2023/01/05 10:49:50;;;;;;;;;;;;;;;8.69;100.00;100961.75;6245943;22;19911;-79
2023/01/05 10:52:21;;;;;;;;;;;;;;;8.62;100.00;100965.22;6244972;22;20277;-80
2023/01/05 10:54:51;;;;;;;;;;;;;;;8.60;100.00;100964.31;6245436;22;19969;-78
2023/01/05 10:57:31;;;;;;;;;;;;;;;8.65;100.00;100970.44;6247906;22;19923;-79
2023/01/05 10:59:59;;;;;;;;;;;;;;;8.81;100.00;100962.66;6222886;22;19911;-78
2023/01/05 11:02:31;;;;;;;;;;;;;;;8.92;100.00;100967.03;6247226;22;19972;-78
2023/01/05 11:05:09;;;;;;;;;;;;;;;9.04;100.00;100973.19;6247932;22;19911;-78
2023/01/05 11:07:50;;;;;;;;;;;;;;;9.10;100.00;100974.06;6274151;22;20481;-82
2023/01/05 11:10:24;;;;;;;;;;;;;;;9.13;100.00;100970.59;6247963;22;20287;-79
2023/01/05 11:13:00;;;;;;;;;;;;;;;9.18;100.00;100975.84;6222411;22;19915;-79
2023/01/05 11:15:29;;;;;;;;;;;;;;;9.22;100.00;100975.81;6221868;22;19915;-78
2023/01/05 11:17:55;;;;;;;;;;;;;;;9.23;100.00;100972.34;6247082;22;19949;-80
2023/01/05 11:20:21;;;;;;;;;;;;;;;9.21;100.00;100991.50;6245491;22;19918;-78
2023/01/05 11:22:50;;;;;;;;;;;;;;;9.16;100.00;100990.63;6245372;22;19919;-79
2023/01/05 11:25:28;;;;;;;;;;;;;;;9.15;100.00;101002.81;6246708;22;19915;-78
2023/01/05 11:28:15;;;;;;;;;;;;;;;9.10;100.00;101007.16;6246526;22;20306;-78
2023/01/05 11:31:03;;;;;;;;;;;;;;;9.03;100.00;101013.22;6246109;22;19915;-78
2023/01/05 11:33:32;;;;;;;;;;;;;;;8.88;100.00;101009.69;6219901;22;19921;-78
2023/01/05 11:35:59;;;;;;;;;;;;;;;8.76;100.00;100997.47;6272402;22;19911;-77
2023/01/05 11:38:30;;;;;;;;;;;;;;;8.62;100.00;100999.13;6246435;22;19922;-78
2023/01/05 11:41:00;;;;;;;;;;;;;;;8.47;100.00;101007.75;6220118;22;19911;-78
2023/01/05 11:43:28;;;;;;;;;;;;;;;8.32;100.00;101010.22;6220046;22;19937;-78
2023/01/05 11:45:59;;;;;;;;;;;;;;;8.17;100.00;101014.50;6220939;22;19915;-79
2023/01/05 11:48:27;;;;;;;;;;;;;;;8.05;100.00;101017.03;6220333;22;20567;-78
2023/01/05 11:50:56;;;;;;;;;;;;;;;7.94;100.00;101016.94;6244254;22;19918;-77
2023/01/05 11:53:37;;;;;;;;;;;;;;;7.87;100.00;101018.63;6220202;22;20235;-78
2023/01/05 11:56:20;;;;;;;;;;;;;;;7.82;100.00;101017.69;6244415;22;20345;-78
2023/01/05 11:58:53;;;;;;;;;;;;;;;7.80;100.00;101029.88;6247585;22;20301;-77
2023/01/05 12:01:40;;;;;;;;;;;;;;;7.79;100.00;101025.50;6222631;22;19961;-77
2023/01/05 12:04:24;;;;;;;;;;;;;;;7.75;100.00;101019.38;6247002;22;20276;-78
2023/01/05 12:07:24;;;;;;;;;;;;;;;7.68;100.00;101012.41;6248758;22;19988;-78
2023/01/05 12:09:59;;;;;;;;;;;;;;;7.63;100.00;101021.91;6247635;22;20219;-77
2023/01/05 12:12:39;;;;;;;;;;;;;;;7.60;100.00;101027.97;6222776;22;19976;-77
2023/01/05 12:15:37;;;;;;;;;;;;;;;7.55;100.00;101029.63;6248881;22;19921;-77
2023/01/05 12:18:42;;;;;;;;;;;;;;;7.51;100.00;101032.19;6275721;22;19911;-77
2023/01/05 12:21:27;;;;;;;;;;;;;;;7.44;100.00;101039.97;6249606;22;19911;-78
2023/01/05 12:23:58;;;;;;;;;;;;;;;7.39;100.00;101039.03;6249452;22;19934;-79
2023/01/05 12:26:49;;;;;;;;;;;;;;;7.35;100.00;101045.06;6223605;22;19938;-79
2023/01/05 12:29:38;;;;;;;;;;;;;;;7.36;100.00;101043.34;6248712;22;20230;-78
2023/01/05 12:32:26;;;;;;;;;;;;;;;7.40;100.00;101043.38;6249108;22;19912;-78
2023/01/05 12:35:09;;;;;;;;;;;;;;;7.47;100.00;101046.94;6198627;22;19911;-78
2023/01/05 12:38:06;;;;;;;;;;;;;;;7.49;100.00;101042.59;6274740;22;19944;-78
2023/01/05 12:40:52;;;;;;;;;;;;;;;7.52;100.00;101037.44;6248651;22;20342;-79
2023/01/05 12:43:34;;;;;;;;;;;;;;;7.55;100.00;101049.63;6275608;22;19994;-77
2023/01/05 12:46:22;;;;;;;;;;;;;;;7.59;100.00;101049.66;6221997;22;20552;-78
2023/01/05 12:48:55;;;;;;;;;;;;;;;7.60;100.00;101054.00;6247429;22;19930;-78
2023/01/05 12:51:44;;;;;;;;;;;;;;;7.59;100.00;101054.88;6244585;22;20307;-77
2023/01/05 12:54:20;;;;;;;;;;;;;;;7.60;100.00;101064.44;6245593;22;19919;-79
2023/01/05 12:56:51;;;;;;;;;;;;;;;7.62;100.00;101062.69;6273586;22;19915;-79
2023/01/05 12:59:27;;;;;;;;;;;;;;;7.62;100.00;101065.31;6246819;22;19915;-78
2023/01/05 13:02:19;;;;;;;;;;;;;;;7.69;100.00;101062.75;6221515;22;19915;-78
2023/01/05 13:05:07;;;;;;;;;;;;;;;7.78;100.00;101066.34;6222599;22;19911;-80
2023/01/05 13:07:41;;;;;;;;;;;;;;;7.82;100.00;101072.44;6220834;22;19915;-76
2023/01/05 13:10:21;;;;;;;;;;;;;;;7.82;100.00;101079.38;6220462;22;19911;-78
2023/01/05 13:12:52;;;;;;;;;;;;;;;7.78;100.00;101074.16;6245659;22;19911;-79
2023/01/05 13:15:23;;;;;;;;;;;;;;;7.76;100.00;101080.22;6247714;22;19919;-78
2023/01/05 13:17:52;;;;;;;;;;;;;;;7.76;100.00;101075.00;6248138;22;19918;-78
2023/01/05 13:20:26;;;;;;;;;;;;;;;7.74;100.00;101075.00;6224188;22;19998;-78
2023/01/05 13:23:17;;;;;;;;;;;;;;;7.74;100.00;101081.91;6226333;22;19998;-78
2023/01/05 13:25:52;;;;;;;;;;;;;;;7.75;100.00;101078.47;6231102;22;19916;-78
2023/01/05 13:28:20;;;;;;;;;;;;;;;7.80;100.00;101078.53;6273190;22;19908;-79
2023/01/05 13:31:07;;;;;;;;;;;;;;;7.82;100.00;101089.81;6236288;22;20191;-80
2023/01/05 13:33:58;;;;;;;;;;;;;;;7.82;100.00;101097.63;6244383;22;19918;-79
2023/01/05 13:37:02;;;;;;;;;;;;;;;7.78;100.00;101092.41;6242475;22;19915;-79
2023/01/05 13:39:41;;;;;;;;;;;;;;;7.78;100.00;101094.13;6266974;22;19971;-79
2023/01/05 13:42:24;;;;;;;;;;;;;;;7.73;100.00;101101.91;6266406;22;19922;-79
2023/01/05 13:45:03;;;;;;;;;;;;;;;7.68;100.00;101103.59;6292220;22;19982;-79
2023/01/05 13:47:54;;;;;;;;;;;;;;;7.62;100.00;101104.38;6263075;22;19959;-79
2023/01/05 13:50:31;;;;;;;;;;;;;;;7.57;100.00;101113.03;6265972;22;19914;-78
2023/01/05 13:53:16;;;;;;;;;;;;;;;7.49;100.00;101114.69;6223668;22;19918;-79